sensor_id;sensor_type;location;lat;lon;timestamp;P1;durP1;ratioP1;P2;durP2;ratioP2
51764;SDS011;37835;53.256;6.456;2023-01-05T00:01:42;31.30;;;4.15;;
51764;SDS011;37835;53.256;6.456;2023-01-05T00:04:08;28.38;;;4.75;;
51764;SDS011;37835;53.256;6.456;2023-01-05T00:06:34;34.42;;;5.35;;
51764;SDS011;37835;53.256;6.456;2023-01-05T00:09:01;34.65;;;5.25;;
51764;SDS011;37835;53.256;6.456;2023-01-05T00:11:27;31.65;;;4.60;;
51764;SDS011;37835;53.256;6.456;2023-01-05T00:14:21;34.25;;;4.18;;
51764;SDS011;37835;53.256;6.456;2023-01-05T00:17:11;29.75;;;4.45;;
51764;SDS011;37835;53.256;6.456;2023-01-05T00:19:57;28.60;;;4.03;;
51764;SDS011;37835;53.256;6.456;2023-01-05T00:22:51;32.75;;;4.70;;
51764;SDS011;37835;53.256;6.456;2023-01-05T00:25:19;24.00;;;3.80;;
51764;SDS011;37835;53.256;6.456;2023-01-05T00:27:46;30.90;;;4.18;;
51764;SDS011;37835;53.256;6.456;2023-01-05T00:30:15;28.48;;;3.88;;
51764;SDS011;37835;53.256;6.456;2023-01-05T00:32:42;25.17;;;3.80;;
51764;SDS011;37835;53.256;6.456;2023-01-05T00:35:09;37.92;;;5.35;;
51764;SDS011;37835;53.256;6.456;2023-01-05T00:37:36;21.70;;;3.90;;
51764;SDS011;37835;53.256;6.456;2023-01-05T00:40:06;29.60;;;5.25;;
51764;SDS011;37835;53.256;6.456;2023-01-05T00:42:37;25.30;;;4.57;;
51764;SDS011;37835;53.256;6.456;2023-01-05T00:45:04;31.98;;;4.60;;
51764;SDS011;37835;53.256;6.456;2023-01-05T00:47:31;30.60;;;5.07;;
51764;SDS011;37835;53.256;6.456;2023-01-05T00:49:57;38.80;;;5.72;;
51764;SDS011;37835;53.256;6.456;2023-01-05T00:52:22;32.13;;;4.97;;
51764;SDS011;37835;53.256;6.456;2023-01-05T00:54:48;35.33;;;5.28;;
51764;SDS011;37835;53.256;6.456;2023-01-05T00:57:14;30.73;;;3.90;;
51764;SDS011;37835;53.256;6.456;2023-01-05T00:59:39;33.17;;;4.65;;
51764;SDS011;37835;53.256;6.456;2023-01-05T01:02:05;29.48;;;4.13;;
51764;SDS011;37835;53.256;6.456;2023-01-05T01:04:31;37.75;;;4.03;;
51764;SDS011;37835;53.256;6.456;2023-01-05T01:06:58;27.77;;;4.07;;
51764;SDS011;37835;53.256;6.456;2023-01-05T01:09:24;31.40;;;4.03;;
51764;SDS011;37835;53.256;6.456;2023-01-05T01:11:50;34.05;;;4.68;;
51764;SDS011;37835;53.256;6.456;2023-01-05T01:14:16;31.13;;;3.97;;
51764;SDS011;37835;53.256;6.456;2023-01-05T01:16:42;33.40;;;4.78;;
51764;SDS011;37835;53.256;6.456;2023-01-05T01:19:12;35.88;;;4.32;;
51764;SDS011;37835;53.256;6.456;2023-01-05T01:21:42;30.52;;;5.22;;
51764;SDS011;37835;53.256;6.456;2023-01-05T01:24:09;31.33;;;4.57;;
51764;SDS011;37835;53.256;6.456;2023-01-05T01:26:43;34.58;;;4.38;;
51764;SDS011;37835;53.256;6.456;2023-01-05T01:29:09;29.42;;;4.45;;
51764;SDS011;37835;53.256;6.456;2023-01-05T01:31:35;30.45;;;4.55;;
51764;SDS011;37835;53.256;6.456;2023-01-05T01:34:01;22.15;;;4.20;;
51764;SDS011;37835;53.256;6.456;2023-01-05T01:36:28;27.63;;;4.10;;
51764;SDS011;37835;53.256;6.456;2023-01-05T01:38:53;23.25;;;3.72;;
51764;SDS011;37835;53.256;6.456;2023-01-05T01:41:19;25.65;;;4.35;;
51764;SDS011;37835;53.256;6.456;2023-01-05T01:43:49;34.85;;;4.72;;
51764;SDS011;37835;53.256;6.456;2023-01-05T01:46:17;30.15;;;5.05;;
51764;SDS011;37835;53.256;6.456;2023-01-05T01:48:48;32.42;;;4.57;;
51764;SDS011;37835;53.256;6.456;2023-01-05T01:51:19;26.08;;;4.45;;
51764;SDS011;37835;53.256;6.456;2023-01-05T01:53:55;23.92;;;3.65;;
51764;SDS011;37835;53.256;6.456;2023-01-05T01:58:53;28.50;;;4.70;;
51764;SDS011;37835;53.256;6.456;2023-01-05T02:01:19;23.48;;;3.97;;
51764;SDS011;37835;53.256;6.456;2023-01-05T02:03:44;34.72;;;5.10;;
51764;SDS011;37835;53.256;6.456;2023-01-05T02:06:10;31.08;;;5.05;;
51764;SDS011;37835;53.256;6.456;2023-01-05T02:08:36;32.03;;;4.00;;
51764;SDS011;37835;53.256;6.456;2023-01-05T02:14:09;29.63;;;5.22;;
51764;SDS011;37835;53.256;6.456;2023-01-05T02:16:45;32.50;;;4.30;;
51764;SDS011;37835;53.256;6.456;2023-01-05T02:38:57;30.67;;;4.30;;
51764;SDS011;37835;53.256;6.456;2023-01-05T02:44:18;30.63;;;5.22;;
51764;SDS011;37835;53.256;6.456;2023-01-05T02:46:45;37.97;;;5.13;;
51764;SDS011;37835;53.256;6.456;2023-01-05T02:49:11;27.27;;;4.78;;
51764;SDS011;37835;53.256;6.456;2023-01-05T02:51:40;28.67;;;3.95;;
51764;SDS011;37835;53.256;6.456;2023-01-05T02:54:30;28.58;;;4.07;;
51764;SDS011;37835;53.256;6.456;2023-01-05T02:57:06;23.55;;;3.45;;
51764;SDS011;37835;53.256;6.456;2023-01-05T02:59:46;26.13;;;3.92;;
51764;SDS011;37835;53.256;6.456;2023-01-05T03:02:22;31.15;;;4.95;;
51764;SDS011;37835;53.256;6.456;2023-01-05T03:04:52;29.63;;;4.32;;
51764;SDS011;37835;53.256;6.456;2023-01-05T03:07:25;26.85;;;4.72;;
51764;SDS011;37835;53.256;6.456;2023-01-05T03:09:54;30.02;;;3.97;;
51764;SDS011;37835;53.256;6.456;2023-01-05T03:12:21;23.45;;;4.05;;
51764;SDS011;37835;53.256;6.456;2023-01-05T03:17:51;28.77;;;4.70;;
51764;SDS011;37835;53.256;6.456;2023-01-05T03:20:38;30.63;;;4.32;;
51764;SDS011;37835;53.256;6.456;2023-01-05T03:23:07;26.65;;;3.92;;
51764;SDS011;37835;53.256;6.456;2023-01-05T03:25:55;30.25;;;4.75;;
51764;SDS011;37835;53.256;6.456;2023-01-05T03:28:40;24.45;;;4.15;;
51764;SDS011;37835;53.256;6.456;2023-01-05T03:37:24;27.48;;;4.80;;
51764;SDS011;37835;53.256;6.456;2023-01-05T03:39:55;31.05;;;4.47;;
51764;SDS011;37835;53.256;6.456;2023-01-05T03:42:20;25.40;;;3.80;;
51764;SDS011;37835;53.256;6.456;2023-01-05T03:44:47;32.25;;;4.55;;
51764;SDS011;37835;53.256;6.456;2023-01-05T03:47:13;32.85;;;4.97;;
51764;SDS011;37835;53.256;6.456;2023-01-05T03:49:39;32.67;;;4.28;;
51764;SDS011;37835;53.256;6.456;2023-01-05T03:52:05;27.05;;;4.97;;
51764;SDS011;37835;53.256;6.456;2023-01-05T03:54:30;29.42;;;4.30;;
51764;SDS011;37835;53.256;6.456;2023-01-05T03:56:56;28.30;;;4.63;;
51764;SDS011;37835;53.256;6.456;2023-01-05T03:59:21;32.42;;;5.40;;
51764;SDS011;37835;53.256;6.456;2023-01-05T04:01:47;30.42;;;4.60;;
51764;SDS011;37835;53.256;6.456;2023-01-05T04:04:12;27.17;;;5.00;;
51764;SDS011;37835;53.256;6.456;2023-01-05T04:06:38;34.08;;;5.35;;
51764;SDS011;37835;53.256;6.456;2023-01-05T04:09:04;22.48;;;4.13;;
51764;SDS011;37835;53.256;6.456;2023-01-05T04:11:30;32.40;;;4.70;;
51764;SDS011;37835;53.256;6.456;2023-01-05T04:13:55;34.22;;;4.85;;
51764;SDS011;37835;53.256;6.456;2023-01-05T04:16:21;28.77;;;4.50;;
51764;SDS011;37835;53.256;6.456;2023-01-05T04:18:47;36.08;;;4.75;;
51764;SDS011;37835;53.256;6.456;2023-01-05T04:21:12;29.02;;;4.85;;
51764;SDS011;37835;53.256;6.456;2023-01-05T04:23:38;32.25;;;4.43;;
51764;SDS011;37835;53.256;6.456;2023-01-05T04:26:04;34.13;;;4.30;;
51764;SDS011;37835;53.256;6.456;2023-01-05T04:28:29;27.05;;;4.10;;
51764;SDS011;37835;53.256;6.456;2023-01-05T04:30:55;29.73;;;4.97;;
51764;SDS011;37835;53.256;6.456;2023-01-05T04:33:21;29.13;;;4.35;;
51764;SDS011;37835;53.256;6.456;2023-01-05T04:35:48;29.17;;;4.63;;
51764;SDS011;37835;53.256;6.456;2023-01-05T04:38:14;24.83;;;4.10;;
51764;SDS011;37835;53.256;6.456;2023-01-05T04:40:39;31.42;;;5.05;;
51764;SDS011;37835;53.256;6.456;2023-01-05T04:43:06;30.60;;;4.50;;
51764;SDS011;37835;53.256;6.456;2023-01-05T04:45:31;26.02;;;4.57;;
51764;SDS011;37835;53.256;6.456;2023-01-05T04:47:57;26.45;;;4.50;;
51764;SDS011;37835;53.256;6.456;2023-01-05T04:50:23;25.13;;;4.20;;
51764;SDS011;37835;53.256;6.456;2023-01-05T04:52:48;30.15;;;4.35;;
51764;SDS011;37835;53.256;6.456;2023-01-05T04:55:14;29.40;;;4.28;;
51764;SDS011;37835;53.256;6.456;2023-01-05T04:57:39;28.13;;;4.35;;
51764;SDS011;37835;53.256;6.456;2023-01-05T05:00:05;26.67;;;4.38;;
51764;SDS011;37835;53.256;6.456;2023-01-05T05:02:31;26.27;;;4.30;;
51764;SDS011;37835;53.256;6.456;2023-01-05T05:04:57;27.55;;;4.07;;
51764;SDS011;37835;53.256;6.456;2023-01-05T05:07:23;31.58;;;4.97;;
51764;SDS011;37835;53.256;6.456;2023-01-05T05:09:48;29.45;;;4.53;;
51764;SDS011;37835;53.256;6.456;2023-01-05T05:12:14;32.40;;;4.65;;
51764;SDS011;37835;53.256;6.456;2023-01-05T05:14:44;27.08;;;4.85;;
51764;SDS011;37835;53.256;6.456;2023-01-05T05:17:13;24.42;;;4.82;;
51764;SDS011;37835;53.256;6.456;2023-01-05T05:19:39;29.42;;;4.32;;
51764;SDS011;37835;53.256;6.456;2023-01-05T05:22:05;28.65;;;4.47;;
51764;SDS011;37835;53.256;6.456;2023-01-05T05:24:30;30.25;;;4.30;;
51764;SDS011;37835;53.256;6.456;2023-01-05T05:26:56;28.27;;;4.30;;
51764;SDS011;37835;53.256;6.456;2023-01-05T05:29:22;30.95;;;4.57;;
51764;SDS011;37835;53.256;6.456;2023-01-05T05:31:48;33.22;;;3.78;;
51764;SDS011;37835;53.256;6.456;2023-01-05T05:34:14;30.67;;;4.05;;
51764;SDS011;37835;53.256;6.456;2023-01-05T05:36:40;33.58;;;4.65;;
51764;SDS011;37835;53.256;6.456;2023-01-05T05:39:05;27.67;;;5.25;;
51764;SDS011;37835;53.256;6.456;2023-01-05T05:41:31;23.25;;;4.57;;
51764;SDS011;37835;53.256;6.456;2023-01-05T05:43:57;24.23;;;4.15;;
51764;SDS011;37835;53.256;6.456;2023-01-05T05:46:27;33.15;;;4.78;;
51764;SDS011;37835;53.256;6.456;2023-01-05T05:48:56;33.40;;;4.68;;
51764;SDS011;37835;53.256;6.456;2023-01-05T05:51:22;28.63;;;4.47;;
51764;SDS011;37835;53.256;6.456;2023-01-05T05:53:48;26.38;;;4.35;;
51764;SDS011;37835;53.256;6.456;2023-01-05T05:56:14;32.17;;;4.70;;
51764;SDS011;37835;53.256;6.456;2023-01-05T05:58:40;33.63;;;4.40;;
51764;SDS011;37835;53.256;6.456;2023-01-05T06:01:06;28.65;;;5.22;;
51764;SDS011;37835;53.256;6.456;2023-01-05T06:03:31;34.22;;;5.15;;
51764;SDS011;37835;53.256;6.456;2023-01-05T06:05:57;35.75;;;4.95;;
51764;SDS011;37835;53.256;6.456;2023-01-05T06:08:23;29.02;;;5.22;;
51764;SDS011;37835;53.256;6.456;2023-01-05T06:10:48;30.73;;;4.40;;
51764;SDS011;37835;53.256;6.456;2023-01-05T06:13:15;27.90;;;4.25;;
51764;SDS011;37835;53.256;6.456;2023-01-05T06:15:41;30.63;;;4.63;;
51764;SDS011;37835;53.256;6.456;2023-01-05T06:18:07;29.73;;;5.53;;
51764;SDS011;37835;53.256;6.456;2023-01-05T06:20:33;28.13;;;4.35;;
51764;SDS011;37835;53.256;6.456;2023-01-05T06:22:58;26.00;;;3.72;;
51764;SDS011;37835;53.256;6.456;2023-01-05T06:25:24;29.05;;;4.45;;
51764;SDS011;37835;53.256;6.456;2023-01-05T06:27:50;24.13;;;4.20;;
51764;SDS011;37835;53.256;6.456;2023-01-05T06:30:15;28.50;;;5.63;;
51764;SDS011;37835;53.256;6.456;2023-01-05T06:32:41;27.90;;;4.13;;
51764;SDS011;37835;53.256;6.456;2023-01-05T06:35:07;25.00;;;5.00;;
51764;SDS011;37835;53.256;6.456;2023-01-05T06:37:33;37.40;;;5.00;;
51764;SDS011;37835;53.256;6.456;2023-01-05T06:39:58;29.98;;;4.32;;
51764;SDS011;37835;53.256;6.456;2023-01-05T06:42:25;33.05;;;5.60;;
51764;SDS011;37835;53.256;6.456;2023-01-05T06:44:50;32.63;;;5.70;;
51764;SDS011;37835;53.256;6.456;2023-01-05T06:47:16;32.38;;;5.57;;
51764;SDS011;37835;53.256;6.456;2023-01-05T06:49:42;34.72;;;4.82;;
51764;SDS011;37835;53.256;6.456;2023-01-05T06:52:07;32.03;;;5.03;;
51764;SDS011;37835;53.256;6.456;2023-01-05T06:54:33;29.83;;;5.22;;
51764;SDS011;37835;53.256;6.456;2023-01-05T06:56:59;36.03;;;5.43;;
51764;SDS011;37835;53.256;6.456;2023-01-05T06:59:24;33.42;;;5.20;;
51764;SDS011;37835;53.256;6.456;2023-01-05T07:01:50;31.50;;;4.15;;
51764;SDS011;37835;53.256;6.456;2023-01-05T07:04:16;31.42;;;4.55;;
51764;SDS011;37835;53.256;6.456;2023-01-05T07:06:41;37.33;;;5.05;;
51764;SDS011;37835;53.256;6.456;2023-01-05T07:09:07;36.58;;;4.82;;
51764;SDS011;37835;53.256;6.456;2023-01-05T07:11:32;32.47;;;4.68;;
51764;SDS011;37835;53.256;6.456;2023-01-05T07:13:58;29.50;;;4.45;;
51764;SDS011;37835;53.256;6.456;2023-01-05T07:16:24;28.08;;;4.53;;
51764;SDS011;37835;53.256;6.456;2023-01-05T07:18:49;34.35;;;4.30;;
51764;SDS011;37835;53.256;6.456;2023-01-05T07:21:15;31.38;;;4.43;;
51764;SDS011;37835;53.256;6.456;2023-01-05T07:23:40;29.00;;;4.50;;
51764;SDS011;37835;53.256;6.456;2023-01-05T07:26:06;36.20;;;4.65;;
51764;SDS011;37835;53.256;6.456;2023-01-05T07:28:33;34.72;;;5.47;;
51764;SDS011;37835;53.256;6.456;2023-01-05T07:30:59;31.52;;;4.28;;
51764;SDS011;37835;53.256;6.456;2023-01-05T07:33:25;31.27;;;5.10;;
51764;SDS011;37835;53.256;6.456;2023-01-05T07:35:51;28.83;;;4.72;;
51764;SDS011;37835;53.256;6.456;2023-01-05T07:38:16;32.53;;;3.97;;
51764;SDS011;37835;53.256;6.456;2023-01-05T07:40:42;34.40;;;5.00;;
51764;SDS011;37835;53.256;6.456;2023-01-05T07:43:07;34.13;;;4.43;;
51764;SDS011;37835;53.256;6.456;2023-01-05T07:45:33;23.40;;;3.92;;
51764;SDS011;37835;53.256;6.456;2023-01-05T07:47:59;26.52;;;4.00;;
51764;SDS011;37835;53.256;6.456;2023-01-05T07:50:25;31.40;;;5.15;;
51764;SDS011;37835;53.256;6.456;2023-01-05T07:52:51;29.38;;;4.53;;
51764;SDS011;37835;53.256;6.456;2023-01-05T07:55:16;27.70;;;4.25;;
51764;SDS011;37835;53.256;6.456;2023-01-05T07:57:42;26.48;;;4.10;;
51764;SDS011;37835;53.256;6.456;2023-01-05T08:00:09;25.05;;;3.63;;
51764;SDS011;37835;53.256;6.456;2023-01-05T08:02:35;31.52;;;4.50;;
51764;SDS011;37835;53.256;6.456;2023-01-05T08:05:01;30.42;;;4.85;;
51764;SDS011;37835;53.256;6.456;2023-01-05T08:07:26;26.48;;;4.45;;
51764;SDS011;37835;53.256;6.456;2023-01-05T08:09:52;33.50;;;4.22;;
51764;SDS011;37835;53.256;6.456;2023-01-05T08:12:36;30.25;;;4.35;;
51764;SDS011;37835;53.256;6.456;2023-01-05T08:15:22;28.92;;;3.75;;
51764;SDS011;37835;53.256;6.456;2023-01-05T08:17:47;27.98;;;4.05;;
51764;SDS011;37835;53.256;6.456;2023-01-05T08:20:13;31.48;;;3.65;;
51764;SDS011;37835;53.256;6.456;2023-01-05T08:22:39;21.85;;;3.90;;
51764;SDS011;37835;53.256;6.456;2023-01-05T08:25:04;21.05;;;4.05;;
51764;SDS011;37835;53.256;6.456;2023-01-05T08:27:30;27.52;;;4.57;;
51764;SDS011;37835;53.256;6.456;2023-01-05T08:29:55;30.88;;;4.10;;
51764;SDS011;37835;53.256;6.456;2023-01-05T08:32:21;23.77;;;4.63;;
51764;SDS011;37835;53.256;6.456;2023-01-05T08:34:47;32.65;;;4.30;;
51764;SDS011;37835;53.256;6.456;2023-01-05T08:37:12;34.75;;;4.45;;
51764;SDS011;37835;53.256;6.456;2023-01-05T08:39:38;29.52;;;4.40;;
51764;SDS011;37835;53.256;6.456;2023-01-05T08:42:04;33.28;;;4.38;;
51764;SDS011;37835;53.256;6.456;2023-01-05T08:44:29;32.08;;;4.30;;
51764;SDS011;37835;53.256;6.456;2023-01-05T08:46:55;32.13;;;5.00;;
51764;SDS011;37835;53.256;6.456;2023-01-05T08:49:20;31.00;;;4.10;;
51764;SDS011;37835;53.256;6.456;2023-01-05T08:51:46;42.45;;;5.88;;
51764;SDS011;37835;53.256;6.456;2023-01-05T08:54:11;35.25;;;5.60;;
51764;SDS011;37835;53.256;6.456;2023-01-05T08:56:37;44.63;;;5.35;;
51764;SDS011;37835;53.256;6.456;2023-01-05T08:59:03;38.38;;;4.75;;
51764;SDS011;37835;53.256;6.456;2023-01-05T09:01:28;41.35;;;5.50;;
51764;SDS011;37835;53.256;6.456;2023-01-05T09:03:55;36.63;;;4.47;;
51764;SDS011;37835;53.256;6.456;2023-01-05T09:06:20;30.17;;;4.80;;
51764;SDS011;37835;53.256;6.456;2023-01-05T09:08:46;30.17;;;4.10;;
51764;SDS011;37835;53.256;6.456;2023-01-05T09:11:20;27.77;;;4.05;;
51764;SDS011;37835;53.256;6.456;2023-01-05T09:13:51;26.48;;;3.28;;
51764;SDS011;37835;53.256;6.456;2023-01-05T09:16:23;23.30;;;3.03;;
51764;SDS011;37835;53.256;6.456;2023-01-05T09:18:50;24.58;;;3.38;;
51764;SDS011;37835;53.256;6.456;2023-01-05T09:21:16;27.67;;;3.72;;
51764;SDS011;37835;53.256;6.456;2023-01-05T09:23:42;22.60;;;3.67;;
51764;SDS011;37835;53.256;6.456;2023-01-05T09:26:08;18.75;;;2.88;;
51764;SDS011;37835;53.256;6.456;2023-01-05T09:28:35;23.27;;;3.15;;
51764;SDS011;37835;53.256;6.456;2023-01-05T09:31:08;19.38;;;2.95;;
51764;SDS011;37835;53.256;6.456;2023-01-05T09:33:35;21.95;;;2.72;;
51764;SDS011;37835;53.256;6.456;2023-01-05T09:36:01;15.20;;;1.98;;
51764;SDS011;37835;53.256;6.456;2023-01-05T09:38:27;22.55;;;2.80;;
51764;SDS011;37835;53.256;6.456;2023-01-05T09:40:54;10.43;;;1.75;;
51764;SDS011;37835;53.256;6.456;2023-01-05T09:43:24;15.73;;;2.40;;
51764;SDS011;37835;53.256;6.456;2023-01-05T09:45:53;21.33;;;2.50;;
51764;SDS011;37835;53.256;6.456;2023-01-05T09:48:20;23.30;;;3.05;;
51764;SDS011;37835;53.256;6.456;2023-01-05T09:50:48;19.08;;;2.45;;
51764;SDS011;37835;53.256;6.456;2023-01-05T09:53:19;23.65;;;2.70;;
51764;SDS011;37835;53.256;6.456;2023-01-05T09:55:52;20.25;;;2.83;;
51764;SDS011;37835;53.256;6.456;2023-01-05T09:58:19;19.40;;;2.88;;
51764;SDS011;37835;53.256;6.456;2023-01-05T10:03:39;20.05;;;2.10;;
51764;SDS011;37835;53.256;6.456;2023-01-05T10:06:11;26.85;;;2.65;;
51764;SDS011;37835;53.256;6.456;2023-01-05T10:08:39;29.20;;;3.33;;
51764;SDS011;37835;53.256;6.456;2023-01-05T10:14:37;27.58;;;3.38;;
51764;SDS011;37835;53.256;6.456;2023-01-05T10:17:12;23.20;;;3.30;;
51764;SDS011;37835;53.256;6.456;2023-01-05T10:19:45;24.17;;;3.13;;
51764;SDS011;37835;53.256;6.456;2023-01-05T10:22:25;29.08;;;4.03;;
51764;SDS011;37835;53.256;6.456;2023-01-05T10:25:20;28.08;;;3.85;;
51764;SDS011;37835;53.256;6.456;2023-01-05T10:30:25;22.27;;;4.03;;
51764;SDS011;37835;53.256;6.456;2023-01-05T10:33:12;23.77;;;3.55;;
51764;SDS011;37835;53.256;6.456;2023-01-05T10:41:27;30.35;;;3.22;;
51764;SDS011;37835;53.256;6.456;2023-01-05T10:44:20;18.75;;;2.63;;
51764;SDS011;37835;53.256;6.456;2023-01-05T10:46:58;14.10;;;2.20;;
51764;SDS011;37835;53.256;6.456;2023-01-05T10:49:25;13.73;;;1.98;;
51764;SDS011;37835;53.256;6.456;2023-01-05T10:51:58;16.98;;;2.33;;
51764;SDS011;37835;53.256;6.456;2023-01-05T11:00:03;13.70;;;2.10;;
51764;SDS011;37835;53.256;6.456;2023-01-05T11:02:39;19.50;;;2.13;;
51764;SDS011;37835;53.256;6.456;2023-01-05T11:07:48;14.20;;;1.80;;
51764;SDS011;37835;53.256;6.456;2023-01-05T11:10:21;14.43;;;2.08;;
51764;SDS011;37835;53.256;6.456;2023-01-05T11:12:59;14.45;;;2.58;;
51764;SDS011;37835;53.256;6.456;2023-01-05T11:15:28;19.98;;;2.45;;
51764;SDS011;37835;53.256;6.456;2023-01-05T11:17:59;13.00;;;2.00;;
51764;SDS011;37835;53.256;6.456;2023-01-05T11:20:26;19.90;;;2.53;;
51764;SDS011;37835;53.256;6.456;2023-01-05T11:22:53;17.30;;;2.83;;
51764;SDS011;37835;53.256;6.456;2023-01-05T11:25:28;13.30;;;2.53;;
51764;SDS011;37835;53.256;6.456;2023-01-05T11:28:13;14.60;;;2.40;;
51764;SDS011;37835;53.256;6.456;2023-01-05T11:30:45;19.25;;;2.53;;
51764;SDS011;37835;53.256;6.456;2023-01-05T11:33:29;18.65;;;3.25;;
51764;SDS011;37835;53.256;6.456;2023-01-05T11:35:58;23.17;;;2.97;;
51764;SDS011;37835;53.256;6.456;2023-01-05T11:38:25;26.38;;;2.90;;
51764;SDS011;37835;53.256;6.456;2023-01-05T11:40:53;20.88;;;2.67;;
51764;SDS011;37835;53.256;6.456;2023-01-05T11:43:21;25.33;;;3.05;;
51764;SDS011;37835;53.256;6.456;2023-01-05T11:45:50;19.35;;;3.40;;
51764;SDS011;37835;53.256;6.456;2023-01-05T11:48:19;20.30;;;3.25;;
51764;SDS011;37835;53.256;6.456;2023-01-05T11:50:53;17.63;;;2.58;;
51764;SDS011;37835;53.256;6.456;2023-01-05T11:53:22;26.42;;;3.55;;
51764;SDS011;37835;53.256;6.456;2023-01-05T11:58:33;22.63;;;3.63;;
51764;SDS011;37835;53.256;6.456;2023-01-05T12:01:18;21.27;;;3.30;;
51764;SDS011;37835;53.256;6.456;2023-01-05T12:09:40;19.42;;;2.47;;
51764;SDS011;37835;53.256;6.456;2023-01-05T12:17:25;14.07;;;2.28;;
51764;SDS011;37835;53.256;6.456;2023-01-05T12:28:22;11.85;;;2.03;;
51764;SDS011;37835;53.256;6.456;2023-01-05T12:33:52;17.10;;;2.80;;
51764;SDS011;37835;53.256;6.456;2023-01-05T12:41:49;17.52;;;2.78;;
51764;SDS011;37835;53.256;6.456;2023-01-05T12:44:32;19.73;;;2.85;;
51764;SDS011;37835;53.256;6.456;2023-01-05T12:47:34;13.38;;;2.53;;
51764;SDS011;37835;53.256;6.456;2023-01-05T12:53:14;22.27;;;3.45;;
51764;SDS011;37835;53.256;6.456;2023-01-05T12:55:52;19.55;;;2.97;;
51764;SDS011;37835;53.256;6.456;2023-01-05T12:58:28;16.90;;;2.80;;
51764;SDS011;37835;53.256;6.456;2023-01-05T13:00:58;18.63;;;2.70;;
51764;SDS011;37835;53.256;6.456;2023-01-05T13:03:27;20.95;;;2.97;;
51764;SDS011;37835;53.256;6.456;2023-01-05T13:08:36;16.30;;;2.63;;
51764;SDS011;37835;53.256;6.456;2023-01-05T13:13:50;15.50;;;2.65;;
51764;SDS011;37835;53.256;6.456;2023-01-05T13:16:24;19.55;;;2.40;;
51764;SDS011;37835;53.256;6.456;2023-01-05T13:18:59;15.65;;;3.35;;
51764;SDS011;37835;53.256;6.456;2023-01-05T13:21:45;14.48;;;3.22;;
51764;SDS011;37835;53.256;6.456;2023-01-05T13:24:13;23.45;;;3.92;;
51764;SDS011;37835;53.256;6.456;2023-01-05T13:26:47;18.15;;;3.38;;
51764;SDS011;37835;53.256;6.456;2023-01-05T13:29:55;20.77;;;3.13;;
51764;SDS011;37835;53.256;6.456;2023-01-05T13:37:53;16.45;;;2.75;;
51764;SDS011;37835;53.256;6.456;2023-01-05T13:51:21;20.65;;;3.00;;
51764;SDS011;37835;53.256;6.456;2023-01-05T13:54:17;20.42;;;3.15;;
51764;SDS011;37835;53.256;6.456;2023-01-05T13:56:49;19.83;;;3.03;;
51764;SDS011;37835;53.256;6.456;2023-01-05T14:01:53;17.33;;;2.80;;
51764;SDS011;37835;53.256;6.456;2023-01-05T14:04:24;26.92;;;3.92;;
51764;SDS011;37835;53.256;6.456;2023-01-05T14:06:51;19.58;;;2.85;;
51764;SDS011;37835;53.256;6.456;2023-01-05T14:09:31;18.38;;;3.45;;
51764;SDS011;37835;53.256;6.456;2023-01-05T14:20:41;16.00;;;2.67;;
51764;SDS011;37835;53.256;6.456;2023-01-05T14:25:54;16.02;;;2.78;;
51764;SDS011;37835;53.256;6.456;2023-01-05T14:38:54;18.42;;;2.78;;
51764;SDS011;37835;53.256;6.456;2023-01-05T14:41:22;20.70;;;3.40;;
51764;SDS011;37835;53.256;6.456;2023-01-05T14:44:02;22.30;;;3.55;;
51764;SDS011;37835;53.256;6.456;2023-01-05T14:46:45;24.43;;;4.93;;
51764;SDS011;37835;53.256;6.456;2023-01-05T14:49:25;23.50;;;3.78;;
51764;SDS011;37835;53.256;6.456;2023-01-05T14:52:02;18.00;;;4.38;;
51764;SDS011;37835;53.256;6.456;2023-01-05T14:55:07;21.50;;;4.63;;
51764;SDS011;37835;53.256;6.456;2023-01-05T15:00:04;27.23;;;5.97;;
51764;SDS011;37835;53.256;6.456;2023-01-05T15:02:40;25.40;;;4.85;;
51764;SDS011;37835;53.256;6.456;2023-01-05T15:05:15;22.52;;;3.70;;
51764;SDS011;37835;53.256;6.456;2023-01-05T15:07:46;21.45;;;3.88;;
51764;SDS011;37835;53.256;6.456;2023-01-05T15:13:16;22.35;;;3.88;;
51764;SDS011;37835;53.256;6.456;2023-01-05T15:21:53;22.85;;;4.70;;
51764;SDS011;37835;53.256;6.456;2023-01-05T15:24:52;26.15;;;5.15;;
51764;SDS011;37835;53.256;6.456;2023-01-05T15:27:47;25.63;;;4.47;;
51764;SDS011;37835;53.256;6.456;2023-01-05T15:36:26;27.05;;;4.70;;
51764;SDS011;37835;53.256;6.456;2023-01-05T15:38:54;18.80;;;3.33;;
51764;SDS011;37835;53.256;6.456;2023-01-05T15:41:21;27.13;;;8.90;;
51764;SDS011;37835;53.256;6.456;2023-01-05T15:43:48;29.88;;;12.10;;
51764;SDS011;37835;53.256;6.456;2023-01-05T15:46:22;25.92;;;7.03;;
51764;SDS011;37835;53.256;6.456;2023-01-05T15:48:54;27.45;;;6.47;;
51764;SDS011;37835;53.256;6.456;2023-01-05T15:53:53;24.77;;;5.18;;
51764;SDS011;37835;53.256;6.456;2023-01-05T15:56:37;35.10;;;6.65;;
51764;SDS011;37835;53.256;6.456;2023-01-05T15:59:20;30.27;;;4.97;;
51764;SDS011;37835;53.256;6.456;2023-01-05T16:07:33;28.38;;;5.45;;
51764;SDS011;37835;53.256;6.456;2023-01-05T16:09:59;29.80;;;5.25;;
51764;SDS011;37835;53.256;6.456;2023-01-05T16:12:24;36.10;;;5.85;;
51764;SDS011;37835;53.256;6.456;2023-01-05T16:14:55;36.30;;;4.60;;
51764;SDS011;37835;53.256;6.456;2023-01-05T16:17:26;33.15;;;4.75;;
51764;SDS011;37835;53.256;6.456;2023-01-05T16:19:55;29.23;;;5.22;;
51764;SDS011;37835;53.256;6.456;2023-01-05T16:22:26;20.25;;;3.42;;
51764;SDS011;37835;53.256;6.456;2023-01-05T16:25:06;28.25;;;5.57;;
51764;SDS011;37835;53.256;6.456;2023-01-05T16:27:42;35.55;;;6.43;;
51764;SDS011;37835;53.256;6.456;2023-01-05T16:33:01;65.75;;;26.55;;
51764;SDS011;37835;53.256;6.456;2023-01-05T16:35:50;49.85;;;13.38;;
51764;SDS011;37835;53.256;6.456;2023-01-05T16:38:30;42.33;;;11.50;;
51764;SDS011;37835;53.256;6.456;2023-01-05T16:41:09;43.08;;;10.57;;
51764;SDS011;37835;53.256;6.456;2023-01-05T16:43:52;48.53;;;12.13;;
51764;SDS011;37835;53.256;6.456;2023-01-05T16:46:23;61.20;;;17.58;;
51764;SDS011;37835;53.256;6.456;2023-01-05T16:49:05;46.67;;;10.18;;
51764;SDS011;37835;53.256;6.456;2023-01-05T16:51:50;33.83;;;7.30;;
51764;SDS011;37835;53.256;6.456;2023-01-05T16:54:21;34.22;;;7.20;;
51764;SDS011;37835;53.256;6.456;2023-01-05T16:56:54;28.85;;;5.43;;
51764;SDS011;37835;53.256;6.456;2023-01-05T17:04:51;32.13;;;6.05;;
51764;SDS011;37835;53.256;6.456;2023-01-05T17:07:17;33.38;;;5.93;;
51764;SDS011;37835;53.256;6.456;2023-01-05T17:09:42;38.67;;;6.25;;
51764;SDS011;37835;53.256;6.456;2023-01-05T17:12:08;38.92;;;5.68;;
51764;SDS011;37835;53.256;6.456;2023-01-05T17:14:36;40.75;;;6.28;;
51764;SDS011;37835;53.256;6.456;2023-01-05T17:17:03;29.02;;;6.15;;
51764;SDS011;37835;53.256;6.456;2023-01-05T17:19:29;34.10;;;5.85;;
51764;SDS011;37835;53.256;6.456;2023-01-05T17:21:59;30.23;;;7.15;;
51764;SDS011;37835;53.256;6.456;2023-01-05T17:24:26;28.35;;;7.10;;
51764;SDS011;37835;53.256;6.456;2023-01-05T17:26:52;37.10;;;6.97;;
51764;SDS011;37835;53.256;6.456;2023-01-05T17:29:20;37.95;;;6.43;;
51764;SDS011;37835;53.256;6.456;2023-01-05T17:31:48;35.22;;;6.80;;
51764;SDS011;37835;53.256;6.456;2023-01-05T17:34:14;36.08;;;6.93;;
51764;SDS011;37835;53.256;6.456;2023-01-05T17:36:40;30.45;;;6.00;;
51764;SDS011;37835;53.256;6.456;2023-01-05T17:39:06;42.35;;;6.97;;
51764;SDS011;37835;53.256;6.456;2023-01-05T17:41:32;29.10;;;6.75;;
51764;SDS011;37835;53.256;6.456;2023-01-05T17:43:57;34.83;;;6.68;;